sensor_id;sensor_type;location;lat;lon;timestamp;pressure;altitude;pressure_sealevel;temperature;humidity
35291;BME280;21411;50.024;19.220;2023-12-29T00:02:08;98921.02;;;5.81;100.00
35291;BME280;21411;50.024;19.220;2023-12-29T00:04:35;98922.75;;;5.82;100.00
35291;BME280;21411;50.024;19.220;2023-12-29T00:07:02;98921.12;;;5.83;100.00
35291;BME280;21411;50.024;19.220;2023-12-29T00:09:29;98915.77;;;5.84;100.00
35291;BME280;21411;50.024;19.220;2023-12-29T00:11:55;98910.46;;;5.84;100.00
35291;BME280;21411;50.024;19.220;2023-12-29T00:14:22;98905.50;;;5.85;100.00
35291;BME280;21411;50.024;19.220;2023-12-29T00:16:48;98904.27;;;5.85;100.00
35291;BME280;21411;50.024;19.220;2023-12-29T00:19:15;98902.29;;;5.86;100.00
35291;BME280;21411;50.024;19.220;2023-12-29T00:21:42;98900.32;;;5.86;100.00
35291;BME280;21411;50.024;19.220;2023-12-29T00:24:08;98896.41;;;5.86;100.00
35291;BME280;21411;50.024;19.220;2023-12-29T00:26:35;98893.91;;;5.87;100.00
35291;BME280;21411;50.024;19.220;2023-12-29T00:29:02;98898.48;;;5.87;100.00
35291;BME280;21411;50.024;19.220;2023-12-29T00:31:28;98897.42;;;5.88;100.00
35291;BME280;21411;50.024;19.220;2023-12-29T00:33:55;98897.40;;;5.88;100.00
35291;BME280;21411;50.024;19.220;2023-12-29T00:36:21;98890.21;;;5.87;100.00
35291;BME280;21411;50.024;19.220;2023-12-29T00:38:48;98888.09;;;5.87;100.00
35291;BME280;21411;50.024;19.220;2023-12-29T00:41:14;98883.35;;;5.87;100.00
35291;BME280;21411;50.024;19.220;2023-12-29T00:43:41;98882.70;;;5.86;100.00
35291;BME280;21411;50.024;19.220;2023-12-29T00:46:08;98877.55;;;5.87;100.00
35291;BME280;21411;50.024;19.220;2023-12-29T00:48:35;98876.48;;;5.87;100.00
35291;BME280;21411;50.024;19.220;2023-12-29T00:51:02;98875.77;;;5.87;100.00
35291;BME280;21411;50.024;19.220;2023-12-29T00:53:29;98875.23;;;5.87;100.00
35291;BME280;21411;50.024;19.220;2023-12-29T00:55:59;98878.73;;;5.88;100.00
35291;BME280;21411;50.024;19.220;2023-12-29T00:58:26;98876.66;;;5.87;100.00
35291;BME280;21411;50.024;19.220;2023-12-29T01:00:53;98872.77;;;5.87;100.00
35291;BME280;21411;50.024;19.220;2023-12-29T01:03:20;98867.36;;;5.86;100.00
35291;BME280;21411;50.024;19.220;2023-12-29T01:05:47;98865.33;;;5.85;100.00
35291;BME280;21411;50.024;19.220;2023-12-29T01:08:13;98876.86;;;5.83;100.00
35291;BME280;21411;50.024;19.220;2023-12-29T01:10:40;98876.62;;;5.81;100.00
35291;BME280;21411;50.024;19.220;2023-12-29T01:13:07;98869.48;;;5.78;100.00
35291;BME280;21411;50.024;19.220;2023-12-29T01:15:33;98861.14;;;5.76;100.00
35291;BME280;21411;50.024;19.220;2023-12-29T01:18:00;98860.71;;;5.74;100.00
35291;BME280;21411;50.024;19.220;2023-12-29T01:20:27;98856.00;;;5.73;100.00
35291;BME280;21411;50.024;19.220;2023-12-29T01:22:53;98859.91;;;5.72;100.00
35291;BME280;21411;50.024;19.220;2023-12-29T01:25:20;98863.98;;;5.72;100.00
35291;BME280;21411;50.024;19.220;2023-12-29T01:27:46;98867.71;;;5.71;100.00
35291;BME280;21411;50.024;19.220;2023-12-29T01:30:13;98867.30;;;5.73;100.00
35291;BME280;21411;50.024;19.220;2023-12-29T01:32:39;98868.84;;;5.74;100.00
35291;BME280;21411;50.024;19.220;2023-12-29T01:35:06;98861.78;;;5.74;100.00
35291;BME280;21411;50.024;19.220;2023-12-29T01:37:33;98851.90;;;5.74;100.00
35291;BME280;21411;50.024;19.220;2023-12-29T01:39:59;98842.21;;;5.74;100.00
35291;BME280;21411;50.024;19.220;2023-12-29T01:42:26;98837.58;;;5.75;100.00
35291;BME280;21411;50.024;19.220;2023-12-29T01:44:53;98834.47;;;5.78;100.00
35291;BME280;21411;50.024;19.220;2023-12-29T01:47:21;98831.50;;;5.80;100.00
35291;BME280;21411;50.024;19.220;2023-12-29T01:49:49;98824.12;;;5.83;100.00
35291;BME280;21411;50.024;19.220;2023-12-29T01:52:16;98819.77;;;5.86;100.00
35291;BME280;21411;50.024;19.220;2023-12-29T01:54:45;98819.10;;;5.88;100.00
35291;BME280;21411;50.024;19.220;2023-12-29T01:57:13;98815.79;;;5.88;100.00
35291;BME280;21411;50.024;19.220;2023-12-29T01:59:40;98814.11;;;5.86;100.00
35291;BME280;21411;50.024;19.220;2023-12-29T02:02:07;98814.70;;;5.85;100.00
35291;BME280;21411;50.024;19.220;2023-12-29T02:04:34;98816.27;;;5.85;100.00
35291;BME280;21411;50.024;19.220;2023-12-29T02:07:03;98814.27;;;5.86;100.00
35291;BME280;21411;50.024;19.220;2023-12-29T02:09:29;98814.38;;;5.88;100.00
35291;BME280;21411;50.024;19.220;2023-12-29T02:11:56;98809.38;;;5.89;100.00
35291;BME280;21411;50.024;19.220;2023-12-29T02:14:23;98806.30;;;5.87;100.00
35291;BME280;21411;50.024;19.220;2023-12-29T02:17:01;98801.48;;;5.81;100.00
35291;BME280;21411;50.024;19.220;2023-12-29T02:19:41;98802.02;;;5.74;100.00
35291;BME280;21411;50.024;19.220;2023-12-29T02:22:11;98795.25;;;5.68;100.00
35291;BME280;21411;50.024;19.220;2023-12-29T02:24:38;98793.27;;;5.66;100.00
35291;BME280;21411;50.024;19.220;2023-12-29T02:30:12;98793.65;;;5.62;100.00
35291;BME280;21411;50.024;19.220;2023-12-29T02:32:43;98793.11;;;5.62;100.00
35291;BME280;21411;50.024;19.220;2023-12-29T02:35:14;98794.79;;;5.60;100.00
35291;BME280;21411;50.024;19.220;2023-12-29T02:37:41;98795.17;;;5.56;100.00
35291;BME280;21411;50.024;19.220;2023-12-29T02:40:08;98787.35;;;5.50;100.00
35291;BME280;21411;50.024;19.220;2023-12-29T02:42:35;98781.30;;;5.44;100.00
35291;BME280;21411;50.024;19.220;2023-12-29T02:45:03;98782.78;;;5.36;100.00
35291;BME280;21411;50.024;19.220;2023-12-29T02:47:29;98790.05;;;5.27;100.00
35291;BME280;21411;50.024;19.220;2023-12-29T02:49:56;98795.36;;;5.20;100.00
35291;BME280;21411;50.024;19.220;2023-12-29T02:52:23;98796.97;;;5.16;100.00
35291;BME280;21411;50.024;19.220;2023-12-29T02:54:49;98785.64;;;5.17;100.00
35291;BME280;21411;50.024;19.220;2023-12-29T02:57:16;98782.69;;;5.20;100.00
35291;BME280;21411;50.024;19.220;2023-12-29T02:59:42;98777.83;;;5.22;100.00
35291;BME280;21411;50.024;19.220;2023-12-29T03:02:09;98771.94;;;5.23;100.00
35291;BME280;21411;50.024;19.220;2023-12-29T03:04:35;98770.66;;;5.20;100.00
35291;BME280;21411;50.024;19.220;2023-12-29T03:07:02;98771.19;;;5.17;100.00
35291;BME280;21411;50.024;19.220;2023-12-29T03:09:28;98764.88;;;5.13;100.00
35291;BME280;21411;50.024;19.220;2023-12-29T03:11:55;98761.35;;;5.09;100.00
35291;BME280;21411;50.024;19.220;2023-12-29T03:14:22;98757.09;;;5.06;100.00
35291;BME280;21411;50.024;19.220;2023-12-29T03:16:48;98751.89;;;5.04;100.00
35291;BME280;21411;50.024;19.220;2023-12-29T03:19:15;98748.39;;;5.04;100.00
35291;BME280;21411;50.024;19.220;2023-12-29T03:21:41;98747.48;;;5.05;100.00
35291;BME280;21411;50.024;19.220;2023-12-29T03:24:08;98739.58;;;5.04;100.00
35291;BME280;21411;50.024;19.220;2023-12-29T03:26:34;98740.56;;;5.02;100.00
35291;BME280;21411;50.024;19.220;2023-12-29T03:29:01;98741.79;;;5.02;100.00
35291;BME280;21411;50.024;19.220;2023-12-29T03:31:27;98740.62;;;5.04;100.00
35291;BME280;21411;50.024;19.220;2023-12-29T03:33:54;98739.92;;;5.12;100.00
35291;BME280;21411;50.024;19.220;2023-12-29T03:36:21;98735.73;;;5.25;100.00
35291;BME280;21411;50.024;19.220;2023-12-29T03:38:47;98734.80;;;5.30;100.00
35291;BME280;21411;50.024;19.220;2023-12-29T03:41:14;98733.16;;;5.31;100.00
35291;BME280;21411;50.024;19.220;2023-12-29T03:43:40;98732.00;;;5.29;100.00
35291;BME280;21411;50.024;19.220;2023-12-29T03:48:43;98732.09;;;5.24;100.00
35291;BME280;21411;50.024;19.220;2023-12-29T03:51:10;98733.23;;;5.19;100.00
35291;BME280;21411;50.024;19.220;2023-12-29T03:53:37;98733.95;;;5.15;100.00
35291;BME280;21411;50.024;19.220;2023-12-29T03:56:07;98735.34;;;5.12;100.00
35291;BME280;21411;50.024;19.220;2023-12-29T03:58:35;98735.17;;;5.12;100.00
35291;BME280;21411;50.024;19.220;2023-12-29T04:01:02;98732.09;;;5.13;100.00
35291;BME280;21411;50.024;19.220;2023-12-29T04:03:28;98734.86;;;5.14;100.00
35291;BME280;21411;50.024;19.220;2023-12-29T04:05:55;98737.77;;;5.16;100.00
35291;BME280;21411;50.024;19.220;2023-12-29T04:08:21;98732.83;;;5.20;100.00
35291;BME280;21411;50.024;19.220;2023-12-29T04:10:48;98735.86;;;5.26;100.00
35291;BME280;21411;50.024;19.220;2023-12-29T04:13:14;98732.29;;;5.34;100.00
35291;BME280;21411;50.024;19.220;2023-12-29T04:15:41;98723.33;;;5.45;100.00
35291;BME280;21411;50.024;19.220;2023-12-29T04:18:07;98717.85;;;5.55;100.00
35291;BME280;21411;50.024;19.220;2023-12-29T04:20:34;98718.73;;;5.62;100.00
35291;BME280;21411;50.024;19.220;2023-12-29T04:23:00;98719.88;;;5.67;100.00
35291;BME280;21411;50.024;19.220;2023-12-29T04:25:27;98717.02;;;5.71;100.00
35291;BME280;21411;50.024;19.220;2023-12-29T04:27:54;98712.24;;;5.75;100.00
35291;BME280;21411;50.024;19.220;2023-12-29T04:30:20;98713.08;;;5.80;100.00
35291;BME280;21411;50.024;19.220;2023-12-29T04:32:47;98714.90;;;5.85;100.00
35291;BME280;21411;50.024;19.220;2023-12-29T04:35:13;98718.98;;;5.95;100.00
35291;BME280;21411;50.024;19.220;2023-12-29T04:37:44;98722.64;;;6.03;100.00
35291;BME280;21411;50.024;19.220;2023-12-29T04:40:11;98720.07;;;6.08;100.00
35291;BME280;21411;50.024;19.220;2023-12-29T04:42:38;98718.60;;;6.12;100.00
35291;BME280;21411;50.024;19.220;2023-12-29T04:45:05;98721.48;;;6.18;100.00
35291;BME280;21411;50.024;19.220;2023-12-29T04:47:31;98719.58;;;6.24;100.00
35291;BME280;21411;50.024;19.220;2023-12-29T04:49:58;98715.71;;;6.30;100.00
35291;BME280;21411;50.024;19.220;2023-12-29T04:52:25;98714.00;;;6.36;100.00
35291;BME280;21411;50.024;19.220;2023-12-29T04:54:51;98712.61;;;6.42;100.00
35291;BME280;21411;50.024;19.220;2023-12-29T04:57:18;98708.05;;;6.48;100.00
35291;BME280;21411;50.024;19.220;2023-12-29T04:59:45;98707.47;;;6.55;100.00
35291;BME280;21411;50.024;19.220;2023-12-29T05:02:11;98706.89;;;6.63;100.00
35291;BME280;21411;50.024;19.220;2023-12-29T05:04:38;98709.85;;;6.67;100.00
35291;BME280;21411;50.024;19.220;2023-12-29T05:07:05;98712.38;;;6.69;100.00
35291;BME280;21411;50.024;19.220;2023-12-29T05:09:32;98712.04;;;6.72;100.00
35291;BME280;21411;50.024;19.220;2023-12-29T05:11:58;98714.78;;;6.73;100.00
35291;BME280;21411;50.024;19.220;2023-12-29T05:14:25;98720.48;;;6.75;100.00
35291;BME280;21411;50.024;19.220;2023-12-29T05:16:51;98715.80;;;6.77;100.00
35291;BME280;21411;50.024;19.220;2023-12-29T05:19:18;98719.41;;;6.79;100.00
35291;BME280;21411;50.024;19.220;2023-12-29T05:21:44;98720.44;;;6.79;100.00
35291;BME280;21411;50.024;19.220;2023-12-29T05:24:11;98718.64;;;6.80;100.00
35291;BME280;21411;50.024;19.220;2023-12-29T05:26:37;98718.76;;;6.81;100.00
35291;BME280;21411;50.024;19.220;2023-12-29T05:29:04;98719.27;;;6.81;100.00
35291;BME280;21411;50.024;19.220;2023-12-29T05:31:30;98721.05;;;6.81;100.00
35291;BME280;21411;50.024;19.220;2023-12-29T05:33:57;98717.02;;;6.80;100.00
35291;BME280;21411;50.024;19.220;2023-12-29T05:36:24;98706.52;;;6.78;100.00
35291;BME280;21411;50.024;19.220;2023-12-29T05:38:50;98704.67;;;6.77;100.00
35291;BME280;21411;50.024;19.220;2023-12-29T05:41:18;98706.48;;;6.76;100.00
35291;BME280;21411;50.024;19.220;2023-12-29T05:43:45;98709.71;;;6.75;100.00
35291;BME280;21411;50.024;19.220;2023-12-29T05:46:12;98711.77;;;6.73;100.00
35291;BME280;21411;50.024;19.220;2023-12-29T05:48:39;98716.09;;;6.72;100.00
35291;BME280;21411;50.024;19.220;2023-12-29T05:51:08;98725.95;;;6.72;100.00
35291;BME280;21411;50.024;19.220;2023-12-29T05:53:36;98728.77;;;6.76;100.00
35291;BME280;21411;50.024;19.220;2023-12-29T05:56:03;98724.09;;;6.80;100.00
35291;BME280;21411;50.024;19.220;2023-12-29T05:58:29;98724.70;;;6.85;100.00
35291;BME280;21411;50.024;19.220;2023-12-29T06:00:56;98730.00;;;6.88;100.00
35291;BME280;21411;50.024;19.220;2023-12-29T06:03:22;98733.52;;;6.91;100.00
35291;BME280;21411;50.024;19.220;2023-12-29T06:05:49;98734.74;;;6.95;100.00
35291;BME280;21411;50.024;19.220;2023-12-29T06:08:16;98735.48;;;7.01;100.00
35291;BME280;21411;50.024;19.220;2023-12-29T06:10:42;98739.39;;;7.07;100.00
35291;BME280;21411;50.024;19.220;2023-12-29T06:13:09;98730.83;;;7.11;100.00
35291;BME280;21411;50.024;19.220;2023-12-29T06:15:35;98728.46;;;7.15;100.00
35291;BME280;21411;50.024;19.220;2023-12-29T06:18:02;98730.30;;;7.20;100.00
35291;BME280;21411;50.024;19.220;2023-12-29T06:20:29;98724.42;;;7.27;100.00
35291;BME280;21411;50.024;19.220;2023-12-29T06:22:56;98723.36;;;7.34;100.00
35291;BME280;21411;50.024;19.220;2023-12-29T06:25:22;98720.02;;;7.39;100.00
35291;BME280;21411;50.024;19.220;2023-12-29T06:27:49;98709.80;;;7.48;100.00
35291;BME280;21411;50.024;19.220;2023-12-29T06:30:16;98703.21;;;7.55;100.00
35291;BME280;21411;50.024;19.220;2023-12-29T06:32:42;98722.23;;;7.59;100.00
35291;BME280;21411;50.024;19.220;2023-12-29T06:35:09;98728.05;;;7.62;100.00
35291;BME280;21411;50.024;19.220;2023-12-29T06:37:40;98728.10;;;7.64;100.00
35291;BME280;21411;50.024;19.220;2023-12-29T06:40:07;98723.55;;;7.66;100.00
35291;BME280;21411;50.024;19.220;2023-12-29T06:42:34;98724.33;;;7.68;100.00
35291;BME280;21411;50.024;19.220;2023-12-29T06:45:01;98725.05;;;7.68;100.00
35291;BME280;21411;50.024;19.220;2023-12-29T06:47:28;98731.47;;;7.67;100.00
35291;BME280;21411;50.024;19.220;2023-12-29T06:49:54;98725.45;;;7.67;100.00
35291;BME280;21411;50.024;19.220;2023-12-29T06:52:21;98718.83;;;7.68;100.00
35291;BME280;21411;50.024;19.220;2023-12-29T06:54:47;98713.71;;;7.74;100.00
35291;BME280;21411;50.024;19.220;2023-12-29T06:57:14;98709.20;;;7.81;100.00
35291;BME280;21411;50.024;19.220;2023-12-29T06:59:41;98707.86;;;7.86;100.00
35291;BME280;21411;50.024;19.220;2023-12-29T07:02:08;98699.16;;;7.86;100.00
35291;BME280;21411;50.024;19.220;2023-12-29T07:04:34;98693.10;;;7.85;100.00
35291;BME280;21411;50.024;19.220;2023-12-29T07:07:01;98691.54;;;7.81;100.00
35291;BME280;21411;50.024;19.220;2023-12-29T07:09:28;98693.89;;;7.77;100.00
35291;BME280;21411;50.024;19.220;2023-12-29T07:11:55;98695.67;;;7.77;100.00
35291;BME280;21411;50.024;19.220;2023-12-29T07:14:21;98700.60;;;7.80;100.00
35291;BME280;21411;50.024;19.220;2023-12-29T07:16:48;98701.60;;;7.84;100.00
35291;BME280;21411;50.024;19.220;2023-12-29T07:19:14;98703.40;;;7.87;100.00
35291;BME280;21411;50.024;19.220;2023-12-29T07:21:41;98706.44;;;7.89;100.00
35291;BME280;21411;50.024;19.220;2023-12-29T07:24:08;98710.48;;;7.93;100.00
35291;BME280;21411;50.024;19.220;2023-12-29T07:26:35;98706.58;;;7.99;100.00
35291;BME280;21411;50.024;19.220;2023-12-29T07:29:01;98702.72;;;8.07;100.00
35291;BME280;21411;50.024;19.220;2023-12-29T07:31:28;98703.82;;;8.15;100.00
35291;BME280;21411;50.024;19.220;2023-12-29T07:33:55;98710.89;;;8.26;100.00
35291;BME280;21411;50.024;19.220;2023-12-29T07:36:21;98716.73;;;8.35;100.00
35291;BME280;21411;50.024;19.220;2023-12-29T07:38:48;98721.77;;;8.43;100.00
35291;BME280;21411;50.024;19.220;2023-12-29T07:41:14;98716.92;;;8.52;100.00
35291;BME280;21411;50.024;19.220;2023-12-29T07:43:41;98716.19;;;8.61;100.00
35291;BME280;21411;50.024;19.220;2023-12-29T07:46:08;98717.92;;;8.67;100.00
35291;BME280;21411;50.024;19.220;2023-12-29T07:48:35;98723.97;;;8.72;100.00
35291;BME280;21411;50.024;19.220;2023-12-29T07:51:04;98728.28;;;8.77;100.00
35291;BME280;21411;50.024;19.220;2023-12-29T07:53:31;98734.80;;;8.83;100.00
35291;BME280;21411;50.024;19.220;2023-12-29T07:55:58;98742.00;;;8.90;100.00
35291;BME280;21411;50.024;19.220;2023-12-29T07:58:24;98741.46;;;8.95;100.00
35291;BME280;21411;50.024;19.220;2023-12-29T08:00:51;98739.20;;;9.00;100.00
35291;BME280;21411;50.024;19.220;2023-12-29T08:03:18;98733.69;;;9.03;100.00
35291;BME280;21411;50.024;19.220;2023-12-29T08:05:44;98733.12;;;9.07;100.00
35291;BME280;21411;50.024;19.220;2023-12-29T08:08:12;98727.37;;;9.10;100.00
35291;BME280;21411;50.024;19.220;2023-12-29T08:10:39;98717.91;;;9.14;100.00
35291;BME280;21411;50.024;19.220;2023-12-29T08:13:05;98712.34;;;9.18;100.00
35291;BME280;21411;50.024;19.220;2023-12-29T08:15:35;98712.58;;;9.22;100.00
35291;BME280;21411;50.024;19.220;2023-12-29T08:18:02;98709.48;;;9.29;100.00
35291;BME280;21411;50.024;19.220;2023-12-29T08:20:28;98713.32;;;9.41;100.00
35291;BME280;21411;50.024;19.220;2023-12-29T08:22:55;98721.95;;;9.55;100.00
35291;BME280;21411;50.024;19.220;2023-12-29T08:25:23;98725.02;;;9.67;100.00
35291;BME280;21411;50.024;19.220;2023-12-29T08:27:49;98729.64;;;9.80;100.00
35291;BME280;21411;50.024;19.220;2023-12-29T08:30:16;98731.16;;;9.92;100.00
35291;BME280;21411;50.024;19.220;2023-12-29T08:32:43;98729.17;;;10.03;100.00
35291;BME280;21411;50.024;19.220;2023-12-29T08:35:11;98730.33;;;10.14;100.00
35291;BME280;21411;50.024;19.220;2023-12-29T08:37:37;98729.82;;;10.24;100.00
35291;BME280;21411;50.024;19.220;2023-12-29T08:40:04;98731.83;;;10.31;100.00
35291;BME280;21411;50.024;19.220;2023-12-29T08:42:33;98737.63;;;10.35;100.00
35291;BME280;21411;50.024;19.220;2023-12-29T08:44:59;98739.95;;;10.37;100.00
35291;BME280;21411;50.024;19.220;2023-12-29T08:47:26;98740.90;;;10.39;100.00
35291;BME280;21411;50.024;19.220;2023-12-29T08:49:53;98743.17;;;10.39;100.00
35291;BME280;21411;50.024;19.220;2023-12-29T08:52:20;98744.80;;;10.39;100.00
35291;BME280;21411;50.024;19.220;2023-12-29T08:54:47;98743.63;;;10.38;100.00
35291;BME280;21411;50.024;19.220;2023-12-29T08:57:14;98745.42;;;10.40;100.00
35291;BME280;21411;50.024;19.220;2023-12-29T08:59:40;98745.92;;;10.43;100.00
35291;BME280;21411;50.024;19.220;2023-12-29T09:02:07;98748.82;;;10.47;100.00
35291;BME280;21411;50.024;19.220;2023-12-29T09:04:33;98746.66;;;10.50;100.00
35291;BME280;21411;50.024;19.220;2023-12-29T09:07:00;98745.19;;;10.53;100.00
35291;BME280;21411;50.024;19.220;2023-12-29T09:09:27;98743.08;;;10.58;100.00
35291;BME280;21411;50.024;19.220;2023-12-29T09:11:53;98737.78;;;10.63;100.00
35291;BME280;21411;50.024;19.220;2023-12-29T09:14:20;98732.10;;;10.68;100.00
35291;BME280;21411;50.024;19.220;2023-12-29T09:16:46;98729.52;;;10.71;100.00
35291;BME280;21411;50.024;19.220;2023-12-29T09:19:13;98730.14;;;10.75;100.00
35291;BME280;21411;50.024;19.220;2023-12-29T09:21:39;98736.44;;;10.82;100.00
35291;BME280;21411;50.024;19.220;2023-12-29T09:24:06;98740.02;;;10.86;100.00
35291;BME280;21411;50.024;19.220;2023-12-29T09:26:33;98737.23;;;10.90;100.00
35291;BME280;21411;50.024;19.220;2023-12-29T09:29:00;98728.55;;;10.97;100.00
35291;BME280;21411;50.024;19.220;2023-12-29T09:31:26;98724.09;;;11.02;100.00
35291;BME280;21411;50.024;19.220;2023-12-29T09:33:53;98723.80;;;11.04;100.00
35291;BME280;21411;50.024;19.220;2023-12-29T09:36:19;98718.13;;;11.06;100.00
35291;BME280;21411;50.024;19.220;2023-12-29T09:38:46;98715.02;;;11.10;100.00
35291;BME280;21411;50.024;19.220;2023-12-29T09:41:14;98703.65;;;11.14;100.00
35291;BME280;21411;50.024;19.220;2023-12-29T09:43:43;98703.32;;;11.16;100.00
35291;BME280;21411;50.024;19.220;2023-12-29T09:46:13;98702.84;;;11.18;100.00
35291;BME280;21411;50.024;19.220;2023-12-29T09:48:45;98702.70;;;11.20;100.00
35291;BME280;21411;50.024;19.220;2023-12-29T09:51:13;98704.26;;;11.23;100.00
35291;BME280;21411;50.024;19.220;2023-12-29T09:53:41;98697.08;;;11.26;100.00
35291;BME280;21411;50.024;19.220;2023-12-29T09:56:08;98695.11;;;11.29;100.00
35291;BME280;21411;50.024;19.220;2023-12-29T09:58:35;98695.23;;;11.32;100.00
35291;BME280;21411;50.024;19.220;2023-12-29T10:01:04;98691.06;;;11.35;100.00
35291;BME280;21411;50.024;19.220;2023-12-29T10:03:33;98688.11;;;11.37;100.00
35291;BME280;21411;50.024;19.220;2023-12-29T10:06:00;98685.23;;;11.37;100.00
35291;BME280;21411;50.024;19.220;2023-12-29T10:08:32;98685.27;;;11.39;100.00
35291;BME280;21411;50.024;19.220;2023-12-29T10:11:00;98681.99;;;11.42;100.00
35291;BME280;21411;50.024;19.220;2023-12-29T10:13:29;98677.76;;;11.47;100.00
35291;BME280;21411;50.024;19.220;2023-12-29T10:16:08;98676.40;;;11.53;100.00
35291;BME280;21411;50.024;19.220;2023-12-29T10:21:35;98660.02;;;11.62;100.00
35291;BME280;21411;50.024;19.220;2023-12-29T10:24:10;98657.95;;;11.64;100.00
35291;BME280;21411;50.024;19.220;2023-12-29T10:26:40;98656.92;;;11.68;100.00
35291;BME280;21411;50.024;19.220;2023-12-29T10:29:07;98660.40;;;11.71;100.00
35291;BME280;21411;50.024;19.220;2023-12-29T10:31:33;98655.91;;;11.72;100.00
35291;BME280;21411;50.024;19.220;2023-12-29T10:34:25;98656.60;;;11.72;100.00
35291;BME280;21411;50.024;19.220;2023-12-29T10:36:56;98661.85;;;11.73;100.00
35291;BME280;21411;50.024;19.220;2023-12-29T10:39:23;98653.30;;;11.76;100.00
35291;BME280;21411;50.024;19.220;2023-12-29T10:42:07;98654.80;;;11.77;100.00
35291;BME280;21411;50.024;19.220;2023-12-29T10:44:36;98650.79;;;11.78;100.00
35291;BME280;21411;50.024;19.220;2023-12-29T10:47:10;98649.00;;;11.79;100.00
35291;BME280;21411;50.024;19.220;2023-12-29T10:49:37;98648.69;;;11.78;100.00
35291;BME280;21411;50.024;19.220;2023-12-29T10:52:14;98649.28;;;11.77;100.00
35291;BME280;21411;50.024;19.220;2023-12-29T10:54:45;98647.33;;;11.77;100.00
35291;BME280;21411;50.024;19.220;2023-12-29T10:57:12;98650.00;;;11.77;100.00
35291;BME280;21411;50.024;19.220;2023-12-29T10:59:39;98647.84;;;11.77;100.00
35291;BME280;21411;50.024;19.220;2023-12-29T11:02:06;98643.41;;;11.75;100.00
35291;BME280;21411;50.024;19.220;2023-12-29T11:04:34;98640.31;;;11.71;100.00
35291;BME280;21411;50.024;19.220;2023-12-29T11:07:01;98640.21;;;11.70;100.00
35291;BME280;21411;50.024;19.220;2023-12-29T11:09:29;98640.52;;;11.69;100.00
35291;BME280;21411;50.024;19.220;2023-12-29T11:11:59;98642.88;;;11.68;100.00
35291;BME280;21411;50.024;19.220;2023-12-29T11:14:26;98648.15;;;11.68;100.00
35291;BME280;21411;50.024;19.220;2023-12-29T11:16:56;98644.14;;;11.70;100.00
35291;BME280;21411;50.024;19.220;2023-12-29T11:19:24;98640.95;;;11.72;100.00
35291;BME280;21411;50.024;19.220;2023-12-29T11:21:52;98642.70;;;11.72;100.00
35291;BME280;21411;50.024;19.220;2023-12-29T11:24:22;98641.34;;;11.72;100.00
35291;BME280;21411;50.024;19.220;2023-12-29T11:26:49;98636.09;;;11.68;100.00
35291;BME280;21411;50.024;19.220;2023-12-29T11:29:16;98636.92;;;11.64;100.00
35291;BME280;21411;50.024;19.220;2023-12-29T11:31:44;98636.70;;;11.60;100.00
35291;BME280;21411;50.024;19.220;2023-12-29T11:34:25;98639.84;;;11.56;100.00
35291;BME280;21411;50.024;19.220;2023-12-29T11:36:58;98639.86;;;11.54;100.00
35291;BME280;21411;50.024;19.220;2023-12-29T11:42:35;98635.41;;;11.49;100.00
35291;BME280;21411;50.024;19.220;2023-12-29T11:45:28;98628.05;;;11.46;100.00
35291;BME280;21411;50.024;19.220;2023-12-29T11:47:55;98622.67;;;11.41;100.00
35291;BME280;21411;50.024;19.220;2023-12-29T11:50:30;98630.04;;;11.38;100.00
35291;BME280;21411;50.024;19.220;2023-12-29T11:52:58;98631.53;;;11.34;100.00
35291;BME280;21411;50.024;19.220;2023-12-29T11:55:30;98629.60;;;11.34;100.00
35291;BME280;21411;50.024;19.220;2023-12-29T11:57:57;98624.23;;;11.37;100.00
35291;BME280;21411;50.024;19.220;2023-12-29T12:00:43;98622.77;;;11.37;100.00
35291;BME280;21411;50.024;19.220;2023-12-29T12:03:24;98626.09;;;11.36;100.00
35291;BME280;21411;50.024;19.220;2023-12-29T12:05:53;98621.35;;;11.35;100.00
35291;BME280;21411;50.024;19.220;2023-12-29T12:08:30;98627.20;;;11.33;100.00
35291;BME280;21411;50.024;19.220;2023-12-29T12:13:46;98622.64;;;11.30;100.00
35291;BME280;21411;50.024;19.220;2023-12-29T12:16:50;98630.20;;;11.31;100.00
35291;BME280;21411;50.024;19.220;2023-12-29T12:19:17;98636.99;;;11.33;100.00
35291;BME280;21411;50.024;19.220;2023-12-29T12:21:46;98643.55;;;11.38;100.00
35291;BME280;21411;50.024;19.220;2023-12-29T12:24:19;98644.42;;;11.45;100.00
35291;BME280;21411;50.024;19.220;2023-12-29T12:26:46;98648.92;;;11.52;100.00
35291;BME280;21411;50.024;19.220;2023-12-29T12:29:13;98646.16;;;11.53;100.00
35291;BME280;21411;50.024;19.220;2023-12-29T12:31:51;98638.89;;;11.50;100.00
35291;BME280;21411;50.024;19.220;2023-12-29T12:34:18;98643.02;;;11.47;100.00
35291;BME280;21411;50.024;19.220;2023-12-29T12:36:49;98648.50;;;11.45;100.00
35291;BME280;21411;50.024;19.220;2023-12-29T12:39:17;98650.94;;;11.44;100.00
35291;BME280;21411;50.024;19.220;2023-12-29T12:41:44;98653.55;;;11.42;100.00
35291;BME280;21411;50.024;19.220;2023-12-29T12:44:12;98658.40;;;11.41;100.00
35291;BME280;21411;50.024;19.220;2023-12-29T12:46:56;98653.99;;;11.41;100.00
35291;BME280;21411;50.024;19.220;2023-12-29T12:49:23;98651.45;;;11.39;100.00
35291;BME280;21411;50.024;19.220;2023-12-29T12:51:50;98649.98;;;11.37;100.00
35291;BME280;21411;50.024;19.220;2023-12-29T12:54:18;98647.89;;;11.37;100.00
35291;BME280;21411;50.024;19.220;2023-12-29T12:56:46;98644.27;;;11.35;100.00
35291;BME280;21411;50.024;19.220;2023-12-29T12:59:14;98636.05;;;11.31;100.00
35291;BME280;21411;50.024;19.220;2023-12-29T13:01:42;98637.60;;;11.29;100.00
35291;BME280;21411;50.024;19.220;2023-12-29T13:04:09;98639.56;;;11.27;100.00